sensor_id;sensor_type;location;lat;lon;timestamp;P1;durP1;ratioP1;P2;durP2;ratioP2
38513;SDS011;24282;48.400;10.808;2022-09-24T00:00:57;7.90;;;4.03;;
38513;SDS011;24282;48.400;10.808;2022-09-24T00:03:23;8.07;;;4.43;;
38513;SDS011;24282;48.400;10.808;2022-09-24T00:05:50;6.83;;;4.53;;
38513;SDS011;24282;48.400;10.808;2022-09-24T00:08:17;6.13;;;3.70;;
38513;SDS011;24282;48.400;10.808;2022-09-24T00:10:44;5.23;;;4.40;;
38513;SDS011;24282;48.400;10.808;2022-09-24T00:13:13;7.03;;;4.97;;
38513;SDS011;24282;48.400;10.808;2022-09-24T00:15:46;5.80;;;4.20;;
38513;SDS011;24282;48.400;10.808;2022-09-24T00:18:13;5.17;;;4.30;;
38513;SDS011;24282;48.400;10.808;2022-09-24T00:20:40;6.17;;;4.57;;
38513;SDS011;24282;48.400;10.808;2022-09-24T00:23:06;5.37;;;4.30;;
38513;SDS011;24282;48.400;10.808;2022-09-24T00:25:33;6.93;;;4.60;;
38513;SDS011;24282;48.400;10.808;2022-09-24T00:28:23;4.73;;;4.00;;
38513;SDS011;24282;48.400;10.808;2022-09-24T00:30:49;4.87;;;4.17;;
38513;SDS011;24282;48.400;10.808;2022-09-24T00:33:16;5.50;;;4.33;;
38513;SDS011;24282;48.400;10.808;2022-09-24T00:35:42;7.00;;;5.57;;
38513;SDS011;24282;48.400;10.808;2022-09-24T00:38:08;6.83;;;5.30;;
38513;SDS011;24282;48.400;10.808;2022-09-24T00:40:35;6.67;;;5.33;;
38513;SDS011;24282;48.400;10.808;2022-09-24T00:43:20;8.37;;;6.07;;
38513;SDS011;24282;48.400;10.808;2022-09-24T00:49:12;8.60;;;6.83;;
38513;SDS011;24282;48.400;10.808;2022-09-24T00:51:41;8.23;;;6.43;;
38513;SDS011;24282;48.400;10.808;2022-09-24T00:54:11;9.93;;;7.50;;
38513;SDS011;24282;48.400;10.808;2022-09-24T00:56:57;8.40;;;6.67;;
38513;SDS011;24282;48.400;10.808;2022-09-24T00:59:25;13.40;;;6.60;;
38513;SDS011;24282;48.400;10.808;2022-09-24T01:01:52;11.50;;;7.30;;
38513;SDS011;24282;48.400;10.808;2022-09-24T01:04:21;7.33;;;6.00;;
38513;SDS011;24282;48.400;10.808;2022-09-24T01:06:48;9.33;;;6.60;;
38513;SDS011;24282;48.400;10.808;2022-09-24T01:09:15;9.37;;;7.43;;
38513;SDS011;24282;48.400;10.808;2022-09-24T01:14:51;8.37;;;6.50;;
38513;SDS011;24282;48.400;10.808;2022-09-24T01:26:57;7.55;;;6.03;;
38513;SDS011;24282;48.400;10.808;2022-09-24T01:29:35;9.33;;;6.30;;
38513;SDS011;24282;48.400;10.808;2022-09-24T01:35:04;6.53;;;5.60;;
38513;SDS011;24282;48.400;10.808;2022-09-24T01:37:39;7.60;;;5.60;;
38513;SDS011;24282;48.400;10.808;2022-09-24T01:40:07;9.60;;;5.77;;
38513;SDS011;24282;48.400;10.808;2022-09-24T01:42:35;7.80;;;5.60;;
38513;SDS011;24282;48.400;10.808;2022-09-24T01:45:04;7.60;;;5.97;;
38513;SDS011;24282;48.400;10.808;2022-09-24T01:47:32;7.40;;;5.57;;
38513;SDS011;24282;48.400;10.808;2022-09-24T01:50:04;6.85;;;5.47;;
38513;SDS011;24282;48.400;10.808;2022-09-24T01:52:49;7.27;;;5.47;;
38513;SDS011;24282;48.400;10.808;2022-09-24T01:55:27;9.23;;;6.23;;
38513;SDS011;24282;48.400;10.808;2022-09-24T01:58:02;6.50;;;5.73;;
38513;SDS011;24282;48.400;10.808;2022-09-24T02:00:33;7.77;;;6.40;;
38513;SDS011;24282;48.400;10.808;2022-09-24T02:03:13;6.83;;;5.73;;
38513;SDS011;24282;48.400;10.808;2022-09-24T02:06:04;7.00;;;6.30;;
38513;SDS011;24282;48.400;10.808;2022-09-24T02:08:39;6.50;;;5.27;;
38513;SDS011;24282;48.400;10.808;2022-09-24T02:11:12;11.83;;;6.13;;
38513;SDS011;24282;48.400;10.808;2022-09-24T02:16:14;6.87;;;5.20;;
38513;SDS011;24282;48.400;10.808;2022-09-24T02:18:45;8.53;;;5.80;;
38513;SDS011;24282;48.400;10.808;2022-09-24T02:21:15;8.77;;;5.90;;
38513;SDS011;24282;48.400;10.808;2022-09-24T02:23:44;10.53;;;5.67;;
38513;SDS011;24282;48.400;10.808;2022-09-24T02:26:14;8.40;;;5.80;;
38513;SDS011;24282;48.400;10.808;2022-09-24T02:28:40;8.17;;;5.53;;
38513;SDS011;24282;48.400;10.808;2022-09-24T02:33:59;7.63;;;5.40;;
38513;SDS011;24282;48.400;10.808;2022-09-24T02:37:03;6.53;;;5.50;;
38513;SDS011;24282;48.400;10.808;2022-09-24T02:39:30;7.00;;;5.87;;
38513;SDS011;24282;48.400;10.808;2022-09-24T02:41:56;6.60;;;4.73;;
38513;SDS011;24282;48.400;10.808;2022-09-24T02:44:23;7.00;;;5.27;;
38513;SDS011;24282;48.400;10.808;2022-09-24T02:46:49;6.13;;;5.50;;
38513;SDS011;24282;48.400;10.808;2022-09-24T02:49:15;9.40;;;6.20;;
38513;SDS011;24282;48.400;10.808;2022-09-24T02:51:42;9.23;;;5.90;;
38513;SDS011;24282;48.400;10.808;2022-09-24T02:54:08;8.07;;;5.60;;
38513;SDS011;24282;48.400;10.808;2022-09-24T02:56:34;9.00;;;6.13;;
38513;SDS011;24282;48.400;10.808;2022-09-24T02:59:01;8.20;;;5.93;;
38513;SDS011;24282;48.400;10.808;2022-09-24T03:01:28;9.27;;;6.30;;
38513;SDS011;24282;48.400;10.808;2022-09-24T03:03:56;8.37;;;6.77;;
38513;SDS011;24282;48.400;10.808;2022-09-24T03:06:25;7.40;;;5.83;;
38513;SDS011;24282;48.400;10.808;2022-09-24T03:08:51;8.43;;;6.20;;
38513;SDS011;24282;48.400;10.808;2022-09-24T03:11:20;7.87;;;6.33;;
38513;SDS011;24282;48.400;10.808;2022-09-24T03:13:46;11.13;;;6.27;;
38513;SDS011;24282;48.400;10.808;2022-09-24T03:16:13;7.87;;;6.13;;
38513;SDS011;24282;48.400;10.808;2022-09-24T03:18:39;7.97;;;6.93;;
38513;SDS011;24282;48.400;10.808;2022-09-24T03:21:06;8.50;;;6.33;;
38513;SDS011;24282;48.400;10.808;2022-09-24T03:23:34;9.20;;;6.90;;
38513;SDS011;24282;48.400;10.808;2022-09-24T03:26:00;6.90;;;5.73;;
38513;SDS011;24282;48.400;10.808;2022-09-24T03:28:26;7.80;;;6.60;;
38513;SDS011;24282;48.400;10.808;2022-09-24T03:30:53;9.17;;;6.50;;
38513;SDS011;24282;48.400;10.808;2022-09-24T03:36:02;8.10;;;6.30;;
38513;SDS011;24282;48.400;10.808;2022-09-24T03:38:28;7.73;;;6.30;;
38513;SDS011;24282;48.400;10.808;2022-09-24T03:40:55;7.37;;;5.93;;
38513;SDS011;24282;48.400;10.808;2022-09-24T03:43:21;8.23;;;6.43;;
38513;SDS011;24282;48.400;10.808;2022-09-24T03:45:47;7.17;;;5.60;;
38513;SDS011;24282;48.400;10.808;2022-09-24T03:48:14;8.13;;;6.40;;
38513;SDS011;24282;48.400;10.808;2022-09-24T03:50:43;8.07;;;6.63;;
38513;SDS011;24282;48.400;10.808;2022-09-24T03:53:10;7.50;;;6.57;;
38513;SDS011;24282;48.400;10.808;2022-09-24T03:55:41;7.90;;;6.10;;
38513;SDS011;24282;48.400;10.808;2022-09-24T03:58:11;9.10;;;6.93;;
38513;SDS011;24282;48.400;10.808;2022-09-24T04:00:37;8.80;;;6.27;;
38513;SDS011;24282;48.400;10.808;2022-09-24T04:03:03;7.63;;;6.43;;
38513;SDS011;24282;48.400;10.808;2022-09-24T04:05:29;9.63;;;7.27;;
38513;SDS011;24282;48.400;10.808;2022-09-24T04:07:56;9.40;;;7.07;;
38513;SDS011;24282;48.400;10.808;2022-09-24T04:10:22;9.53;;;7.37;;
38513;SDS011;24282;48.400;10.808;2022-09-24T04:12:49;11.63;;;6.37;;
38513;SDS011;24282;48.400;10.808;2022-09-24T04:15:16;8.50;;;6.37;;
38513;SDS011;24282;48.400;10.808;2022-09-24T04:18:03;8.37;;;6.73;;
38513;SDS011;24282;48.400;10.808;2022-09-24T04:20:28;6.97;;;5.90;;
38513;SDS011;24282;48.400;10.808;2022-09-24T04:22:56;9.30;;;6.30;;
38513;SDS011;24282;48.400;10.808;2022-09-24T04:25:23;8.37;;;5.77;;
38513;SDS011;24282;48.400;10.808;2022-09-24T04:27:54;9.07;;;6.53;;
38513;SDS011;24282;48.400;10.808;2022-09-24T04:30:22;8.13;;;6.23;;
38513;SDS011;24282;48.400;10.808;2022-09-24T04:32:48;8.10;;;6.30;;
38513;SDS011;24282;48.400;10.808;2022-09-24T04:35:19;8.37;;;6.33;;
38513;SDS011;24282;48.400;10.808;2022-09-24T04:37:46;7.50;;;5.90;;
38513;SDS011;24282;48.400;10.808;2022-09-24T04:40:12;7.87;;;6.33;;
38513;SDS011;24282;48.400;10.808;2022-09-24T04:42:40;7.60;;;6.10;;
38513;SDS011;24282;48.400;10.808;2022-09-24T04:45:07;7.33;;;5.80;;
38513;SDS011;24282;48.400;10.808;2022-09-24T04:47:34;7.27;;;5.93;;
38513;SDS011;24282;48.400;10.808;2022-09-24T04:50:01;7.70;;;5.77;;
38513;SDS011;24282;48.400;10.808;2022-09-24T04:52:28;7.50;;;5.77;;
38513;SDS011;24282;48.400;10.808;2022-09-24T04:54:56;9.57;;;6.90;;
38513;SDS011;24282;48.400;10.808;2022-09-24T04:57:24;9.90;;;6.13;;
38513;SDS011;24282;48.400;10.808;2022-09-24T04:59:50;6.90;;;5.33;;
38513;SDS011;24282;48.400;10.808;2022-09-24T05:02:16;7.77;;;5.27;;
38513;SDS011;24282;48.400;10.808;2022-09-24T05:04:43;9.63;;;6.27;;
38513;SDS011;24282;48.400;10.808;2022-09-24T05:07:09;6.53;;;5.77;;
38513;SDS011;24282;48.400;10.808;2022-09-24T05:09:35;8.53;;;5.80;;
38513;SDS011;24282;48.400;10.808;2022-09-24T05:12:02;7.53;;;5.77;;
38513;SDS011;24282;48.400;10.808;2022-09-24T05:14:28;7.10;;;6.03;;
38513;SDS011;24282;48.400;10.808;2022-09-24T05:16:54;8.23;;;6.53;;
38513;SDS011;24282;48.400;10.808;2022-09-24T05:19:20;8.03;;;6.43;;
38513;SDS011;24282;48.400;10.808;2022-09-24T05:21:46;7.90;;;6.17;;
38513;SDS011;24282;48.400;10.808;2022-09-24T05:24:12;7.90;;;5.90;;
38513;SDS011;24282;48.400;10.808;2022-09-24T05:26:38;8.53;;;6.77;;
38513;SDS011;24282;48.400;10.808;2022-09-24T05:29:22;8.97;;;6.80;;
38513;SDS011;24282;48.400;10.808;2022-09-24T05:31:48;8.27;;;6.27;;
38513;SDS011;24282;48.400;10.808;2022-09-24T05:34:14;8.40;;;6.33;;
38513;SDS011;24282;48.400;10.808;2022-09-24T05:36:40;7.80;;;6.40;;
38513;SDS011;24282;48.400;10.808;2022-09-24T05:39:10;7.83;;;6.07;;
38513;SDS011;24282;48.400;10.808;2022-09-24T05:41:37;10.00;;;6.63;;
38513;SDS011;24282;48.400;10.808;2022-09-24T05:44:04;8.60;;;6.80;;
38513;SDS011;24282;48.400;10.808;2022-09-24T05:46:30;11.07;;;8.50;;
38513;SDS011;24282;48.400;10.808;2022-09-24T05:49:00;11.43;;;8.40;;
38513;SDS011;24282;48.400;10.808;2022-09-24T05:51:25;8.10;;;7.13;;
38513;SDS011;24282;48.400;10.808;2022-09-24T05:53:51;10.87;;;8.10;;
38513;SDS011;24282;48.400;10.808;2022-09-24T05:56:17;9.17;;;7.67;;
38513;SDS011;24282;48.400;10.808;2022-09-24T05:58:42;9.57;;;7.47;;
38513;SDS011;24282;48.400;10.808;2022-09-24T06:01:08;8.17;;;6.83;;
38513;SDS011;24282;48.400;10.808;2022-09-24T06:03:34;8.90;;;7.57;;
38513;SDS011;24282;48.400;10.808;2022-09-24T06:05:59;14.23;;;9.00;;
38513;SDS011;24282;48.400;10.808;2022-09-24T06:08:29;12.83;;;8.47;;
38513;SDS011;24282;48.400;10.808;2022-09-24T06:10:59;11.70;;;8.47;;
38513;SDS011;24282;48.400;10.808;2022-09-24T06:13:26;21.47;;;12.70;;
38513;SDS011;24282;48.400;10.808;2022-09-24T06:15:58;19.93;;;11.60;;
38513;SDS011;24282;48.400;10.808;2022-09-24T06:18:27;21.40;;;12.53;;
38513;SDS011;24282;48.400;10.808;2022-09-24T06:20:53;21.33;;;12.80;;
38513;SDS011;24282;48.400;10.808;2022-09-24T06:23:19;18.87;;;12.13;;
38513;SDS011;24282;48.400;10.808;2022-09-24T06:25:48;18.07;;;11.20;;
38513;SDS011;24282;48.400;10.808;2022-09-24T06:28:15;25.20;;;12.37;;
38513;SDS011;24282;48.400;10.808;2022-09-24T06:30:41;21.23;;;12.23;;
38513;SDS011;24282;48.400;10.808;2022-09-24T06:33:08;19.00;;;11.90;;
38513;SDS011;24282;48.400;10.808;2022-09-24T06:35:36;17.07;;;10.37;;
38513;SDS011;24282;48.400;10.808;2022-09-24T06:38:03;15.93;;;10.30;;
38513;SDS011;24282;48.400;10.808;2022-09-24T06:40:29;20.90;;;11.57;;
38513;SDS011;24282;48.400;10.808;2022-09-24T06:42:55;19.50;;;10.70;;
38513;SDS011;24282;48.400;10.808;2022-09-24T06:45:21;16.47;;;9.70;;
38513;SDS011;24282;48.400;10.808;2022-09-24T06:47:54;15.33;;;9.57;;
38513;SDS011;24282;48.400;10.808;2022-09-24T06:50:22;13.90;;;10.27;;
38513;SDS011;24282;48.400;10.808;2022-09-24T06:52:48;16.63;;;10.77;;
38513;SDS011;24282;48.400;10.808;2022-09-24T06:55:14;15.77;;;11.07;;
38513;SDS011;24282;48.400;10.808;2022-09-24T06:57:41;13.87;;;10.30;;
38513;SDS011;24282;48.400;10.808;2022-09-24T07:00:07;12.47;;;10.13;;
38513;SDS011;24282;48.400;10.808;2022-09-24T07:02:33;10.93;;;9.10;;
38513;SDS011;24282;48.400;10.808;2022-09-24T07:04:59;11.30;;;9.50;;
38513;SDS011;24282;48.400;10.808;2022-09-24T07:07:25;9.33;;;8.20;;
38513;SDS011;24282;48.400;10.808;2022-09-24T07:09:53;10.80;;;8.40;;
38513;SDS011;24282;48.400;10.808;2022-09-24T07:12:23;9.40;;;8.40;;
38513;SDS011;24282;48.400;10.808;2022-09-24T07:14:48;10.33;;;8.60;;
38513;SDS011;24282;48.400;10.808;2022-09-24T07:17:14;10.67;;;9.03;;
38513;SDS011;24282;48.400;10.808;2022-09-24T07:19:40;12.93;;;8.67;;
38513;SDS011;24282;48.400;10.808;2022-09-24T07:22:06;11.53;;;9.37;;
38513;SDS011;24282;48.400;10.808;2022-09-24T07:24:32;10.77;;;9.30;;
38513;SDS011;24282;48.400;10.808;2022-09-24T07:26:58;11.07;;;9.43;;
38513;SDS011;24282;48.400;10.808;2022-09-24T07:29:24;12.93;;;10.10;;
38513;SDS011;24282;48.400;10.808;2022-09-24T07:31:50;12.43;;;9.90;;
38513;SDS011;24282;48.400;10.808;2022-09-24T07:34:16;12.10;;;9.87;;
38513;SDS011;24282;48.400;10.808;2022-09-24T07:36:41;13.00;;;10.30;;
38513;SDS011;24282;48.400;10.808;2022-09-24T07:39:08;11.73;;;10.00;;
38513;SDS011;24282;48.400;10.808;2022-09-24T07:41:34;9.90;;;8.90;;
38513;SDS011;24282;48.400;10.808;2022-09-24T07:43:59;10.77;;;9.47;;
38513;SDS011;24282;48.400;10.808;2022-09-24T07:46:26;14.40;;;9.27;;
38513;SDS011;24282;48.400;10.808;2022-09-24T07:48:52;11.30;;;9.03;;
38513;SDS011;24282;48.400;10.808;2022-09-24T07:51:23;9.10;;;8.17;;
38513;SDS011;24282;48.400;10.808;2022-09-24T07:53:51;12.50;;;9.67;;
38513;SDS011;24282;48.400;10.808;2022-09-24T07:56:17;11.63;;;9.30;;
38513;SDS011;24282;48.400;10.808;2022-09-24T07:58:43;12.57;;;9.77;;
38513;SDS011;24282;48.400;10.808;2022-09-24T08:01:12;13.93;;;10.80;;
38513;SDS011;24282;48.400;10.808;2022-09-24T08:03:38;17.57;;;11.77;;
38513;SDS011;24282;48.400;10.808;2022-09-24T08:06:05;13.30;;;10.97;;
38513;SDS011;24282;48.400;10.808;2022-09-24T08:08:31;14.23;;;11.43;;
38513;SDS011;24282;48.400;10.808;2022-09-24T08:10:57;11.13;;;9.83;;
38513;SDS011;24282;48.400;10.808;2022-09-24T08:13:27;11.67;;;9.97;;
38513;SDS011;24282;48.400;10.808;2022-09-24T08:15:57;10.97;;;9.47;;
38513;SDS011;24282;48.400;10.808;2022-09-24T08:18:26;13.13;;;9.98;;
38513;SDS011;24282;48.400;10.808;2022-09-24T08:20:53;12.33;;;10.40;;
38513;SDS011;24282;48.400;10.808;2022-09-24T08:23:19;10.53;;;9.10;;
38513;SDS011;24282;48.400;10.808;2022-09-24T08:25:45;11.83;;;10.57;;
38513;SDS011;24282;48.400;10.808;2022-09-24T08:28:11;11.63;;;9.40;;
38513;SDS011;24282;48.400;10.808;2022-09-24T08:30:41;10.00;;;7.50;;
38513;SDS011;24282;48.400;10.808;2022-09-24T08:33:07;11.87;;;8.07;;
38513;SDS011;24282;48.400;10.808;2022-09-24T08:35:34;10.60;;;7.27;;
38513;SDS011;24282;48.400;10.808;2022-09-24T08:38:00;10.43;;;7.70;;
38513;SDS011;24282;48.400;10.808;2022-09-24T08:43:36;10.77;;;7.53;;
38513;SDS011;24282;48.400;10.808;2022-09-24T08:46:26;9.57;;;8.00;;
38513;SDS011;24282;48.400;10.808;2022-09-24T08:49:17;9.80;;;8.30;;
38513;SDS011;24282;48.400;10.808;2022-09-24T08:52:08;9.47;;;8.50;;
38513;SDS011;24282;48.400;10.808;2022-09-24T08:54:59;11.27;;;8.63;;
38513;SDS011;24282;48.400;10.808;2022-09-24T08:57:31;9.83;;;8.73;;
38513;SDS011;24282;48.400;10.808;2022-09-24T09:00:03;11.90;;;9.80;;
38513;SDS011;24282;48.400;10.808;2022-09-24T09:02:40;10.90;;;8.73;;
38513;SDS011;24282;48.400;10.808;2022-09-24T09:10:42;15.97;;;11.20;;
38513;SDS011;24282;48.400;10.808;2022-09-24T09:15:53;11.50;;;9.90;;
38513;SDS011;24282;48.400;10.808;2022-09-24T09:18:39;11.17;;;9.47;;
38513;SDS011;24282;48.400;10.808;2022-09-24T09:23:49;13.80;;;9.03;;
38513;SDS011;24282;48.400;10.808;2022-09-24T09:26:16;10.60;;;9.30;;
38513;SDS011;24282;48.400;10.808;2022-09-24T09:28:44;10.43;;;8.30;;
38513;SDS011;24282;48.400;10.808;2022-09-24T09:36:48;11.90;;;9.73;;
38513;SDS011;24282;48.400;10.808;2022-09-24T09:42:22;10.73;;;9.13;;
38513;SDS011;24282;48.400;10.808;2022-09-24T09:44:50;10.13;;;8.73;;
38513;SDS011;24282;48.400;10.808;2022-09-24T09:50:07;11.53;;;9.20;;
38513;SDS011;24282;48.400;10.808;2022-09-24T09:52:39;12.63;;;9.53;;
38513;SDS011;24282;48.400;10.808;2022-09-24T09:55:05;11.35;;;8.50;;
38513;SDS011;24282;48.400;10.808;2022-09-24T09:57:32;10.57;;;8.80;;
38513;SDS011;24282;48.400;10.808;2022-09-24T10:00:00;9.07;;;8.13;;
38513;SDS011;24282;48.400;10.808;2022-09-24T10:02:37;10.57;;;9.10;;
38513;SDS011;24282;48.400;10.808;2022-09-24T10:05:14;11.23;;;9.93;;
38513;SDS011;24282;48.400;10.808;2022-09-24T10:07:45;11.13;;;9.67;;
38513;SDS011;24282;48.400;10.808;2022-09-24T10:10:17;13.23;;;9.00;;
38513;SDS011;24282;48.400;10.808;2022-09-24T10:12:45;13.00;;;11.03;;
38513;SDS011;24282;48.400;10.808;2022-09-24T10:17:41;12.90;;;10.97;;
38513;SDS011;24282;48.400;10.808;2022-09-24T10:20:08;12.63;;;10.00;;
38513;SDS011;24282;48.400;10.808;2022-09-24T10:22:38;10.90;;;8.83;;
38513;SDS011;24282;48.400;10.808;2022-09-24T10:25:18;12.57;;;10.07;;
38513;SDS011;24282;48.400;10.808;2022-09-24T10:27:48;12.27;;;10.50;;
38513;SDS011;24282;48.400;10.808;2022-09-24T10:30:16;12.67;;;11.33;;
38513;SDS011;24282;48.400;10.808;2022-09-24T10:32:58;14.67;;;11.00;;
38513;SDS011;24282;48.400;10.808;2022-09-24T10:37:52;10.77;;;9.63;;
38513;SDS011;24282;48.400;10.808;2022-09-24T10:40:20;12.07;;;9.63;;
38513;SDS011;24282;48.400;10.808;2022-09-24T10:42:59;11.48;;;10.27;;
38513;SDS011;24282;48.400;10.808;2022-09-24T10:45:29;11.27;;;10.18;;
38513;SDS011;24282;48.400;10.808;2022-09-24T10:48:20;11.35;;;10.15;;
38513;SDS011;24282;48.400;10.808;2022-09-24T10:51:26;11.35;;;9.43;;
38513;SDS011;24282;48.400;10.808;2022-09-24T10:56:42;11.43;;;10.20;;
38513;SDS011;24282;48.400;10.808;2022-09-24T11:10:20;12.43;;;11.18;;
38513;SDS011;24282;48.400;10.808;2022-09-24T11:12:56;12.37;;;10.70;;
38513;SDS011;24282;48.400;10.808;2022-09-24T11:18:16;14.43;;;12.65;;
38513;SDS011;24282;48.400;10.808;2022-09-24T11:26:21;16.52;;;12.45;;
38513;SDS011;24282;48.400;10.808;2022-09-24T11:31:41;14.30;;;10.77;;
38513;SDS011;24282;48.400;10.808;2022-09-24T11:48:51;11.43;;;8.50;;
38513;SDS011;24282;48.400;10.808;2022-09-24T11:51:35;12.10;;;9.65;;
38513;SDS011;24282;48.400;10.808;2022-09-24T11:54:20;10.00;;;9.00;;
38513;SDS011;24282;48.400;10.808;2022-09-24T11:56:59;10.82;;;8.85;;
38513;SDS011;24282;48.400;10.808;2022-09-24T11:59:43;11.07;;;8.85;;
38513;SDS011;24282;48.400;10.808;2022-09-24T12:02:26;11.13;;;9.77;;
38513;SDS011;24282;48.400;10.808;2022-09-24T12:05:11;11.20;;;9.25;;
38513;SDS011;24282;48.400;10.808;2022-09-24T12:08:09;12.15;;;9.77;;
38513;SDS011;24282;48.400;10.808;2022-09-24T12:13:36;10.40;;;9.30;;
38513;SDS011;24282;48.400;10.808;2022-09-24T12:21:41;13.70;;;10.95;;
38513;SDS011;24282;48.400;10.808;2022-09-24T12:24:12;15.45;;;10.73;;
38513;SDS011;24282;48.400;10.808;2022-09-24T12:26:59;11.32;;;9.38;;
38513;SDS011;24282;48.400;10.808;2022-09-24T12:32:20;14.25;;;11.35;;
38513;SDS011;24282;48.400;10.808;2022-09-24T12:35:21;11.02;;;9.07;;
38513;SDS011;24282;48.400;10.808;2022-09-24T12:38:40;10.00;;;8.13;;
38513;SDS011;24282;48.400;10.808;2022-09-24T12:43:48;12.00;;;9.65;;
38513;SDS011;24282;48.400;10.808;2022-09-24T12:46:20;10.00;;;8.27;;
38513;SDS011;24282;48.400;10.808;2022-09-24T12:48:49;11.60;;;7.95;;
38513;SDS011;24282;48.400;10.808;2022-09-24T12:51:18;10.00;;;8.50;;
38513;SDS011;24282;48.400;10.808;2022-09-24T12:53:58;10.48;;;8.35;;
38513;SDS011;24282;48.400;10.808;2022-09-24T12:56:30;9.48;;;7.53;;
38513;SDS011;24282;48.400;10.808;2022-09-24T12:58:57;8.88;;;7.25;;
38513;SDS011;24282;48.400;10.808;2022-09-24T13:04:05;8.07;;;7.25;;
38513;SDS011;24282;48.400;10.808;2022-09-24T13:06:50;9.02;;;6.88;;
38513;SDS011;24282;48.400;10.808;2022-09-24T13:12:03;7.35;;;6.60;;
38513;SDS011;24282;48.400;10.808;2022-09-24T13:14:49;8.55;;;7.22;;
38513;SDS011;24282;48.400;10.808;2022-09-24T13:17:21;9.05;;;6.78;;
38513;SDS011;24282;48.400;10.808;2022-09-24T13:19:48;8.63;;;7.15;;
38513;SDS011;24282;48.400;10.808;2022-09-24T13:24:47;9.82;;;6.45;;
38513;SDS011;24282;48.400;10.808;2022-09-24T13:33:32;7.95;;;5.35;;
38513;SDS011;24282;48.400;10.808;2022-09-24T13:38:56;7.35;;;6.05;;
38513;SDS011;24282;48.400;10.808;2022-09-24T13:43:55;9.48;;;5.90;;
38513;SDS011;24282;48.400;10.808;2022-09-24T13:46:28;8.15;;;5.85;;
38513;SDS011;24282;48.400;10.808;2022-09-24T13:48:57;6.00;;;5.18;;
38513;SDS011;24282;48.400;10.808;2022-09-24T13:51:28;6.20;;;5.05;;
38513;SDS011;24282;48.400;10.808;2022-09-24T13:54:02;6.25;;;5.03;;
38513;SDS011;24282;48.400;10.808;2022-09-24T13:56:36;7.13;;;4.88;;
38513;SDS011;24282;48.400;10.808;2022-09-24T13:59:03;5.95;;;4.25;;
38513;SDS011;24282;48.400;10.808;2022-09-24T14:01:34;5.43;;;4.57;;
38513;SDS011;24282;48.400;10.808;2022-09-24T14:04:05;6.30;;;5.18;;
38513;SDS011;24282;48.400;10.808;2022-09-24T14:06:40;7.13;;;5.65;;
38513;SDS011;24282;48.400;10.808;2022-09-24T14:11:56;5.93;;;4.55;;
38513;SDS011;24282;48.400;10.808;2022-09-24T14:14:28;6.97;;;5.32;;
38513;SDS011;24282;48.400;10.808;2022-09-24T14:17:07;6.93;;;5.00;;
38513;SDS011;24282;48.400;10.808;2022-09-24T14:19:37;7.32;;;5.43;;
38513;SDS011;24282;48.400;10.808;2022-09-24T14:22:03;7.05;;;5.53;;
38513;SDS011;24282;48.400;10.808;2022-09-24T14:24:39;5.82;;;4.43;;
38513;SDS011;24282;48.400;10.808;2022-09-24T14:27:11;8.07;;;5.38;;
38513;SDS011;24282;48.400;10.808;2022-09-24T14:32:35;7.60;;;5.18;;
38513;SDS011;24282;48.400;10.808;2022-09-24T14:35:09;6.07;;;4.07;;
38513;SDS011;24282;48.400;10.808;2022-09-24T14:37:45;6.07;;;4.20;;
38513;SDS011;24282;48.400;10.808;2022-09-24T14:40:18;6.85;;;4.45;;
38513;SDS011;24282;48.400;10.808;2022-09-24T14:42:47;7.63;;;5.65;;
38513;SDS011;24282;48.400;10.808;2022-09-24T14:45:21;9.15;;;4.25;;
38513;SDS011;24282;48.400;10.808;2022-09-24T14:48:01;7.15;;;3.97;;
38513;SDS011;24282;48.400;10.808;2022-09-24T14:50:47;5.00;;;3.92;;
38513;SDS011;24282;48.400;10.808;2022-09-24T14:55:49;5.57;;;3.92;;
38513;SDS011;24282;48.400;10.808;2022-09-24T14:58:25;6.13;;;3.72;;
38513;SDS011;24282;48.400;10.808;2022-09-24T15:01:04;4.97;;;3.17;;
38513;SDS011;24282;48.400;10.808;2022-09-24T15:03:38;5.15;;;3.50;;
38513;SDS011;24282;48.400;10.808;2022-09-24T15:06:25;5.18;;;3.60;;
38513;SDS011;24282;48.400;10.808;2022-09-24T15:09:06;5.07;;;3.78;;
38513;SDS011;24282;48.400;10.808;2022-09-24T15:12:08;6.63;;;3.80;;
38513;SDS011;24282;48.400;10.808;2022-09-24T15:14:52;7.05;;;4.05;;
38513;SDS011;24282;48.400;10.808;2022-09-24T15:17:20;5.70;;;4.22;;
38513;SDS011;24282;48.400;10.808;2022-09-24T15:19:47;5.05;;;3.83;;
38513;SDS011;24282;48.400;10.808;2022-09-24T15:22:18;5.22;;;3.47;;
38513;SDS011;24282;48.400;10.808;2022-09-24T15:24:47;5.68;;;3.83;;
38513;SDS011;24282;48.400;10.808;2022-09-24T15:27:26;5.57;;;3.85;;
38513;SDS011;24282;48.400;10.808;2022-09-24T15:29:56;5.43;;;3.92;;
38513;SDS011;24282;48.400;10.808;2022-09-24T15:32:28;5.22;;;4.57;;
38513;SDS011;24282;48.400;10.808;2022-09-24T15:34:55;8.05;;;4.75;;
38513;SDS011;24282;48.400;10.808;2022-09-24T15:37:22;5.38;;;4.07;;
38513;SDS011;24282;48.400;10.808;2022-09-24T15:39:49;6.10;;;3.63;;
38513;SDS011;24282;48.400;10.808;2022-09-24T15:42:23;4.85;;;3.40;;
38513;SDS011;24282;48.400;10.808;2022-09-24T15:44:51;4.68;;;3.38;;
38513;SDS011;24282;48.400;10.808;2022-09-24T15:47:20;5.80;;;3.30;;
38513;SDS011;24282;48.400;10.808;2022-09-24T15:49:47;5.22;;;3.15;;
38513;SDS011;24282;48.400;10.808;2022-09-24T15:52:15;5.07;;;3.67;;
38513;SDS011;24282;48.400;10.808;2022-09-24T15:54:51;6.63;;;3.45;;
38513;SDS011;24282;48.400;10.808;2022-09-24T15:57:17;4.32;;;3.40;;
38513;SDS011;24282;48.400;10.808;2022-09-24T15:59:43;4.72;;;3.40;;
38513;SDS011;24282;48.400;10.808;2022-09-24T16:02:15;5.05;;;3.42;;
38513;SDS011;24282;48.400;10.808;2022-09-24T16:04:45;6.25;;;4.03;;
38513;SDS011;24282;48.400;10.808;2022-09-24T16:07:11;5.35;;;4.10;;
38513;SDS011;24282;48.400;10.808;2022-09-24T16:09:37;5.47;;;3.50;;
38513;SDS011;24282;48.400;10.808;2022-09-24T16:12:03;6.75;;;4.55;;
38513;SDS011;24282;48.400;10.808;2022-09-24T16:14:28;5.50;;;4.60;;
38513;SDS011;24282;48.400;10.808;2022-09-24T16:16:54;6.28;;;4.38;;
38513;SDS011;24282;48.400;10.808;2022-09-24T16:19:20;5.15;;;3.88;;
38513;SDS011;24282;48.400;10.808;2022-09-24T16:21:46;6.00;;;4.40;;
38513;SDS011;24282;48.400;10.808;2022-09-24T16:24:11;6.57;;;4.70;;
38513;SDS011;24282;48.400;10.808;2022-09-24T16:26:37;5.45;;;4.22;;
38513;SDS011;24282;48.400;10.808;2022-09-24T16:29:04;5.28;;;4.60;;
38513;SDS011;24282;48.400;10.808;2022-09-24T16:31:30;6.38;;;4.72;;
38513;SDS011;24282;48.400;10.808;2022-09-24T16:33:56;5.32;;;4.30;;
38513;SDS011;24282;48.400;10.808;2022-09-24T16:36:23;9.55;;;5.28;;
38513;SDS011;24282;48.400;10.808;2022-09-24T16:38:48;5.03;;;3.97;;
38513;SDS011;24282;48.400;10.808;2022-09-24T16:41:14;4.28;;;3.83;;
38513;SDS011;24282;48.400;10.808;2022-09-24T16:43:40;6.45;;;4.43;;
38513;SDS011;24282;48.400;10.808;2022-09-24T16:46:06;5.28;;;3.95;;
38513;SDS011;24282;48.400;10.808;2022-09-24T16:48:34;6.82;;;4.72;;
38513;SDS011;24282;48.400;10.808;2022-09-24T16:51:04;7.07;;;4.80;;
38513;SDS011;24282;48.400;10.808;2022-09-24T16:53:32;6.28;;;5.25;;
38513;SDS011;24282;48.400;10.808;2022-09-24T16:58:30;6.90;;;5.72;;
38513;SDS011;24282;48.400;10.808;2022-09-24T17:00:57;7.85;;;6.40;;
38513;SDS011;24282;48.400;10.808;2022-09-24T17:03:22;8.15;;;6.57;;
38513;SDS011;24282;48.400;10.808;2022-09-24T17:05:48;7.30;;;6.25;;
38513;SDS011;24282;48.400;10.808;2022-09-24T17:08:14;9.27;;;5.63;;